Time;durP1;ratioP1;P1;durP2;ratioP2;P2;SDS_P1;SDS_P2;PMS_P1;PMS_P2;Temp;Humidity;BMP_temperature;BMP_pressure;BME280_temperature;BME280_humidity;BME280_pressure;Samples;Min_cycle;Max_cycle;Signal;HPM_P1;HPM_P2
2023/09/04 00:00:10;;;;;;;4.85;2.63;;;;;;;24.02;100.00;102362.22;5011843;28;20169;-46
2023/09/04 00:02:37;;;;;;;3.95;2.03;;;;;;;24.02;100.00;102362.22;5000118;28;20163;-48
2023/09/04 00:05:04;;;;;;;4.38;2.17;;;;;;;24.11;100.00;102360.19;5007299;28;20054;-50
2023/09/04 00:07:30;;;;;;;5.97;1.83;;;;;;;24.10;100.00;102360.66;5009657;28;20058;-50
2023/09/04 00:09:57;;;;;;;4.18;2.10;;;;;;;24.12;100.00;102364.59;5011387;28;20100;-51
2023/09/04 00:12:25;;;;;;;4.28;2.00;;;;;;;24.13;100.00;102366.16;5009701;28;20053;-50
2023/09/04 00:14:52;;;;;;;3.88;2.00;;;;;;;24.09;100.00;102362.69;5006917;28;20226;-49
2023/09/04 00:17:18;;;;;;;6.72;2.15;;;;;;;24.06;100.00;102357.16;5008259;28;20566;-48
2023/09/04 00:19:44;;;;;;;3.83;2.03;;;;;;;24.06;100.00;102357.16;5011808;28;20045;-49
2023/09/04 00:22:12;;;;;;;4.03;2.00;;;;;;;24.08;100.00;102363.16;5011342;28;20460;-52
2023/09/04 00:24:38;;;;;;;4.90;1.95;;;;;;;24.11;100.00;102357.34;5004802;28;20046;-50
2023/09/04 00:27:05;;;;;;;5.15;2.38;;;;;;;24.14;100.00;102364.13;5006675;28;20042;-52
2023/09/04 00:29:32;;;;;;;4.35;2.00;;;;;;;24.07;100.00;102364.44;5010147;28;20046;-48
2023/09/04 00:31:58;;;;;;;7.43;2.17;;;;;;;24.00;100.00;102350.56;5002797;28;20093;-51
2023/09/04 00:34:25;;;;;;;3.65;2.20;;;;;;;23.99;100.00;102346.09;5006323;28;20038;-49
2023/09/04 00:36:51;;;;;;;3.95;2.10;;;;;;;24.04;100.00;102343.41;5010377;28;20108;-50
2023/09/04 00:39:18;;;;;;;6.18;2.33;;;;;;;24.06;100.00;102345.78;5003595;28;20127;-49
2023/09/04 00:41:45;;;;;;;4.35;1.95;;;;;;;24.09;100.00;102347.69;5009434;28;20562;-53
2023/09/04 00:44:12;;;;;;;3.08;2.00;;;;;;;24.10;100.00;102349.28;5004364;28;20140;-49
2023/09/04 00:46:40;;;;;;;4.97;2.30;;;;;;;24.08;100.00;102346.94;5009197;28;20085;-49
2023/09/04 00:49:09;;;;;;;4.00;2.13;;;;;;;24.06;100.00;102352.28;5010925;28;20045;-50
2023/09/04 00:51:36;;;;;;;4.28;2.03;;;;;;;24.06;100.00;102355.13;5011213;28;20115;-50
2023/09/04 00:54:03;;;;;;;7.32;2.03;;;;;;;24.08;100.00;102354.66;5006207;28;20049;-50
2023/09/04 00:56:30;;;;;;;4.60;2.25;;;;;;;24.04;100.00;102351.94;5007225;28;20057;-49
2023/09/04 00:58:57;;;;;;;5.07;2.10;;;;;;;24.07;100.00;102344.56;5005211;28;20108;-50
2023/09/04 01:01:24;;;;;;;3.70;1.75;;;;;;;24.12;100.00;102349.59;5004990;28;20073;-50
2023/09/04 01:03:50;;;;;;;5.28;1.95;;;;;;;24.10;100.00;102347.22;5007430;28;20046;-51
2023/09/04 01:06:17;;;;;;;3.60;1.98;;;;;;;24.13;100.00;102351.19;5002848;28;20066;-51
2023/09/04 01:08:44;;;;;;;5.47;1.90;;;;;;;24.12;100.00;102346.75;5005292;28;20041;-50
2023/09/04 01:11:21;;;;;;;4.28;2.00;;;;;;;24.10;100.00;102352.13;4992108;28;20049;-51
2023/09/04 01:13:51;;;;;;;3.50;1.98;;;;;;;24.09;100.00;102351.34;5006453;28;20045;-50
2023/09/04 01:16:19;;;;;;;4.88;2.03;;;;;;;24.09;100.00;102351.34;5006161;28;20054;-52
2023/09/04 01:18:46;;;;;;;3.65;1.75;;;;;;;24.13;100.00;102348.34;4978032;28;20054;-49
2023/09/04 01:21:16;;;;;;;2.85;2.00;;;;;;;24.14;100.00;102342.16;4977928;28;20108;-49
2023/09/04 01:23:43;;;;;;;4.38;1.98;;;;;;;24.12;100.00;102346.75;5004719;28;20058;-46
2023/09/04 01:26:20;;;;;;;2.67;1.80;;;;;;;24.10;100.00;102352.13;4990642;28;20054;-49
2023/09/04 01:28:53;;;;;;;4.57;2.08;;;;;;;24.08;100.00;102344.09;5005199;28;20129;-49
2023/09/04 01:31:28;;;;;;;4.38;2.05;;;;;;;24.05;100.00;102339.34;5009450;28;20136;-45
2023/09/04 01:34:08;;;;;;;3.90;1.85;;;;;;;24.17;100.00;102340.44;5004578;28;20056;-45
2023/09/04 01:36:36;;;;;;;3.67;1.75;;;;;;;24.30;100.00;102335.44;4992595;28;20094;-49
2023/09/04 01:39:03;;;;;;;2.80;1.77;;;;;;;24.30;100.00;102347.56;5006036;28;20054;-49
2023/09/04 01:41:30;;;;;;;4.75;1.90;;;;;;;24.32;100.00;102345.06;5010208;28;20132;-49
2023/09/04 01:43:56;;;;;;;2.97;1.88;;;;;;;24.33;100.00;102349.47;5007090;28;20092;-47
2023/09/04 01:46:23;;;;;;;3.42;2.10;;;;;;;24.36;100.00;102342.03;5003427;28;20531;-51
2023/09/04 01:48:50;;;;;;;4.65;2.30;;;;;;;24.36;100.00;102336.34;5002423;28;20085;-49
2023/09/04 01:51:16;;;;;;;5.03;1.92;;;;;;;24.33;100.00;102338.09;4990449;28;20062;-45
2023/09/04 01:53:43;;;;;;;3.65;2.05;;;;;;;24.35;100.00;102329.09;5006152;28;20065;-46
2023/09/04 01:56:10;;;;;;;3.65;1.67;;;;;;;24.34;100.00;102328.28;5009756;28;20057;-49
2023/09/04 01:58:36;;;;;;;3.58;1.90;;;;;;;24.33;100.00;102331.63;5007377;28;20116;-47
2023/09/04 02:01:03;;;;;;;4.05;1.80;;;;;;;24.32;100.00;102336.53;5000858;28;20062;-46
2023/09/04 02:03:29;;;;;;;3.85;1.80;;;;;;;24.34;100.00;102338.91;5008884;28;20085;-47
2023/09/04 02:05:56;;;;;;;4.43;1.85;;;;;;;24.35;100.00;102346.16;5009314;28;20053;-48
2023/09/04 02:08:22;;;;;;;4.93;2.00;;;;;;;24.33;100.00;102349.47;5003130;28;20755;-44
2023/09/04 02:10:51;;;;;;;4.95;2.13;;;;;;;24.36;100.00;102345.69;5008929;28;20416;-49
2023/09/04 02:13:17;;;;;;;4.63;2.30;;;;;;;24.34;100.00;102341.75;5004622;28;20520;-47
2023/09/04 02:15:44;;;;;;;3.00;1.70;;;;;;;24.35;100.00;102349.00;5008444;28;20524;-48
2023/09/04 02:18:10;;;;;;;3.97;1.80;;;;;;;24.32;100.00;102353.59;5009152;28;20081;-47
2023/09/04 02:20:37;;;;;;;4.25;2.20;;;;;;;24.31;100.00;102342.69;5009390;28;20053;-48
2023/09/04 02:23:04;;;;;;;4.25;2.30;;;;;;;24.27;100.00;102345.66;4995334;28;20081;-46
2023/09/04 02:25:30;;;;;;;4.97;1.90;;;;;;;24.32;100.00;102341.41;5007323;28;20053;-48
2023/09/04 02:27:57;;;;;;;3.50;1.77;;;;;;;24.33;100.00;102342.97;5007369;28;20054;-45
2023/09/04 02:30:23;;;;;;;3.58;1.88;;;;;;;24.32;100.00;102327.19;5009302;28;20104;-46
2023/09/04 02:32:50;;;;;;;4.32;2.10;;;;;;;24.33;100.00;102329.56;4998618;28;20608;-46
2023/09/04 02:35:17;;;;;;;5.10;2.20;;;;;;;24.34;100.00;102327.53;4999919;28;20066;-49
2023/09/04 02:37:44;;;;;;;3.10;1.70;;;;;;;24.32;100.00;102335.72;5000465;28;20104;-46
2023/09/04 02:40:12;;;;;;;4.20;2.05;;;;;;;24.30;100.00;102332.59;5008960;28;20065;-48
2023/09/04 02:42:38;;;;;;;6.03;2.00;;;;;;;24.30;100.00;102339.03;5002700;28;20085;-45
2023/09/04 02:45:07;;;;;;;2.72;1.70;;;;;;;24.30;100.00;102333.34;5008109;28;20052;-49
2023/09/04 02:47:35;;;;;;;3.83;1.98;;;;;;;24.30;100.00;102332.59;5001110;28;20057;-46
2023/09/04 02:50:06;;;;;;;3.20;1.92;;;;;;;24.30;100.00;102332.59;5009147;28;20073;-46
2023/09/04 02:52:32;;;;;;;4.40;2.00;;;;;;;24.28;100.00;102335.09;4999976;28;20161;-46
2023/09/04 02:54:59;;;;;;;7.05;2.10;;;;;;;24.26;100.00;102327.06;4988753;28;20045;-48
2023/09/04 02:57:28;;;;;;;3.47;2.13;;;;;;;24.30;100.00;102315.53;5001709;28;20066;-47
2023/09/04 02:59:55;;;;;;;5.07;2.03;;;;;;;24.30;100.00;102316.31;5008065;28;20099;-49
2023/09/04 03:02:22;;;;;;;3.00;2.00;;;;;;;24.28;100.00;102330.22;5007540;28;20053;-50
2023/09/04 03:04:56;;;;;;;3.90;1.77;;;;;;;24.27;100.00;102322.16;5008074;28;20096;-47
2023/09/04 03:07:27;;;;;;;5.22;2.17;;;;;;;24.28;100.00;102326.59;5004651;28;20808;-44
2023/09/04 03:09:58;;;;;;;4.07;2.00;;;;;;;24.27;100.00;102327.84;5005926;28;20088;-46
2023/09/04 03:12:26;;;;;;;3.40;2.00;;;;;;;24.24;100.00;102323.88;5003195;28;20108;-46
2023/09/04 03:15:04;;;;;;;4.00;2.08;;;;;;;24.25;100.00;102322.63;5006326;28;20054;-47
2023/09/04 03:17:32;;;;;;;3.22;1.90;;;;;;;24.26;100.00;102314.88;5002062;28;20061;-48
2023/09/04 03:19:59;;;;;;;3.22;1.80;;;;;;;24.26;100.00;102304.31;5008861;28;20112;-46
2023/09/04 03:22:26;;;;;;;4.88;2.03;;;;;;;24.25;100.00;102313.31;5003092;28;20088;-47
2023/09/04 03:24:56;;;;;;;4.70;2.00;;;;;;;24.25;100.00;102301.94;4994552;28;20143;-47
2023/09/04 03:27:23;;;;;;;3.92;2.08;;;;;;;24.23;100.00;102310.16;5006442;28;20081;-45
2023/09/04 03:29:49;;;;;;;3.45;2.00;;;;;;;24.26;100.00;102300.69;5004700;28;20050;-46
2023/09/04 03:32:16;;;;;;;4.97;2.20;;;;;;;24.24;100.00;102306.06;5005671;28;20108;-47
2023/09/04 03:34:42;;;;;;;4.95;2.38;;;;;;;24.26;100.00;102303.50;5007870;28;20045;-49
2023/09/04 03:37:09;;;;;;;4.93;1.92;;;;;;;24.24;100.00;102306.06;5007560;28;20049;-50
2023/09/04 03:39:37;;;;;;;4.72;1.95;;;;;;;24.23;100.00;102307.31;5008494;28;20104;-49
2023/09/04 03:42:07;;;;;;;4.70;2.35;;;;;;;24.22;100.00;102305.72;4998182;28;20050;-46
2023/09/04 03:44:34;;;;;;;6.68;2.53;;;;;;;24.21;100.00;102306.97;5002323;28;20060;-47
2023/09/04 03:47:00;;;;;;;3.22;1.90;;;;;;;24.21;100.00;102306.97;5000520;28;20046;-48
2023/09/04 03:49:27;;;;;;;3.65;1.83;;;;;;;24.21;100.00;102306.97;5008313;28;20054;-48
2023/09/04 03:51:54;;;;;;;3.60;1.95;;;;;;;24.21;100.00;102306.97;5007274;28;20054;-47
2023/09/04 03:54:22;;;;;;;4.53;2.10;;;;;;;24.19;100.00;102300.97;5003084;28;20081;-48
2023/09/04 03:56:49;;;;;;;4.35;2.28;;;;;;;24.19;100.00;102304.59;5007063;28;20058;-50
2023/09/04 03:59:16;;;;;;;3.70;1.95;;;;;;;24.18;100.00;102302.25;5006362;28;20475;-47
2023/09/04 04:01:43;;;;;;;3.53;1.90;;;;;;;24.20;100.00;102311.09;5001444;28;20131;-44
2023/09/04 04:04:11;;;;;;;6.25;2.15;;;;;;;24.19;100.00;102306.66;5005030;28;20112;-46
2023/09/04 04:06:38;;;;;;;5.30;1.90;;;;;;;24.18;100.00;102305.09;5003098;28;20141;-47
2023/09/04 04:09:06;;;;;;;5.82;2.53;;;;;;;24.21;100.00;102298.44;4997311;28;20115;-49
2023/09/04 04:11:36;;;;;;;3.13;1.92;;;;;;;24.18;100.00;102303.03;5010532;28;20053;-43
2023/09/04 04:14:02;;;;;;;4.28;2.00;;;;;;;24.17;100.00;102292.91;5009250;28;20046;-48
2023/09/04 04:16:34;;;;;;;3.85;1.90;;;;;;;24.17;100.00;102295.00;5008926;28;20527;-44
2023/09/04 04:19:01;;;;;;;4.57;2.17;;;;;;;24.18;100.00;102288.03;5011594;28;20611;-46
2023/09/04 04:21:27;;;;;;;4.78;2.45;;;;;;;24.15;100.00;102286.94;5011378;28;20471;-47
2023/09/04 04:23:54;;;;;;;3.25;1.98;;;;;;;24.15;100.00;102303.19;5005004;28;20244;-48
2023/09/04 04:26:21;;;;;;;2.80;2.05;;;;;;;24.15;100.00;102295.47;5003366;28;20082;-46
2023/09/04 04:28:47;;;;;;;5.03;2.05;;;;;;;24.16;100.00;102288.50;5011169;28;20054;-49
2023/09/04 04:31:14;;;;;;;4.55;2.17;;;;;;;24.18;100.00;102299.41;5011361;28;20649;-51
2023/09/04 04:33:40;;;;;;;7.00;2.47;;;;;;;24.18;100.00;102290.88;5010294;28;20511;-47
2023/09/04 04:36:07;;;;;;;5.47;2.30;;;;;;;24.17;100.00;102292.16;5010074;28;20045;-48
2023/09/04 04:38:33;;;;;;;3.88;2.00;;;;;;;24.18;100.00;102290.88;5005723;28;20053;-47
2023/09/04 04:41:00;;;;;;;3.55;1.90;;;;;;;24.15;100.00;102291.81;5005265;28;20115;-50
2023/09/04 04:43:27;;;;;;;5.72;2.28;;;;;;;24.16;100.00;102290.53;5006304;28;20077;-45
2023/09/04 04:45:55;;;;;;;5.00;2.38;;;;;;;24.17;100.00;102286.47;5005121;28;20503;-46
2023/09/04 04:48:21;;;;;;;5.32;2.47;;;;;;;24.14;100.00;102295.94;5007632;28;20050;-49
2023/09/04 04:50:48;;;;;;;5.22;2.05;;;;;;;24.17;100.00;102297.81;5005169;28;20042;-49
2023/09/04 04:53:15;;;;;;;4.95;2.08;;;;;;;24.13;100.00;102295.13;5009843;28;20112;-48
2023/09/04 04:55:41;;;;;;;6.13;2.10;;;;;;;24.14;100.00;102301.63;5007196;28;20046;-47
2023/09/04 04:58:08;;;;;;;5.20;2.33;;;;;;;24.14;100.00;102302.38;5010686;28;20542;-44
2023/09/04 05:00:34;;;;;;;2.58;1.70;;;;;;;24.16;100.00;102307.59;5005913;28;20057;-45
2023/09/04 05:03:01;;;;;;;6.28;2.20;;;;;;;24.14;100.00;102295.94;5009660;28;20046;-46
2023/09/04 05:05:28;;;;;;;3.10;2.17;;;;;;;24.14;100.00;102301.63;5006142;28;20052;-46
2023/09/04 05:07:54;;;;;;;3.17;2.13;;;;;;;24.10;100.00;102306.66;5011004;28;20164;-45
2023/09/04 05:10:21;;;;;;;4.25;2.20;;;;;;;24.13;100.00;102302.88;5006372;28;20430;-46
2023/09/04 05:12:47;;;;;;;4.47;2.20;;;;;;;24.12;100.00;102304.13;5009009;28;20062;-47
2023/09/04 05:15:14;;;;;;;5.78;2.17;;;;;;;24.14;100.00;102299.53;5004297;28;20140;-46
2023/09/04 05:17:40;;;;;;;4.35;2.47;;;;;;;24.12;100.00;102292.75;5010716;28;20050;-45
2023/09/04 05:20:08;;;;;;;3.83;2.13;;;;;;;24.10;100.00;102296.06;5008970;28;20050;-46
2023/09/04 05:22:35;;;;;;;2.53;1.80;;;;;;;24.12;100.00;102292.75;5009634;28;20100;-47
2023/09/04 05:25:01;;;;;;;4.80;2.22;;;;;;;24.11;100.00;102303.34;5005501;28;20073;-46
2023/09/04 05:27:28;;;;;;;6.40;2.20;;;;;;;24.11;100.00;102297.69;5009472;28;20456;-45
2023/09/04 05:29:55;;;;;;;4.85;2.15;;;;;;;24.12;100.00;102298.44;5009671;28;20112;-46
2023/09/04 05:32:21;;;;;;;6.10;2.33;;;;;;;24.10;100.00;102290.41;5010073;28;20088;-46
2023/09/04 05:34:52;;;;;;;4.63;2.15;;;;;;;24.11;100.00;102291.19;5006717;28;20061;-45
2023/09/04 05:37:19;;;;;;;4.53;2.33;;;;;;;24.10;100.00;102292.47;5009020;28;20058;-46
2023/09/04 05:39:45;;;;;;;5.57;2.30;;;;;;;24.11;100.00;102294.03;5001664;28;20090;-45
2023/09/04 05:42:12;;;;;;;2.80;1.90;;;;;;;24.11;100.00;102288.34;5002784;28;20108;-48
2023/09/04 05:44:38;;;;;;;7.20;2.42;;;;;;;24.08;100.00;102286.47;5006617;28;20049;-47
2023/09/04 05:47:05;;;;;;;5.20;2.22;;;;;;;24.08;100.00;102292.94;5009867;28;20061;-48
2023/09/04 05:49:31;;;;;;;4.57;2.20;;;;;;;24.09;100.00;102302.22;5007474;28;20049;-47
2023/09/04 05:51:58;;;;;;;3.92;2.17;;;;;;;24.08;100.00;102298.63;5009594;28;20054;-46
2023/09/04 05:54:24;;;;;;;7.43;3.65;;;;;;;24.08;100.00;102306.34;5005954;28;21773;-47
2023/09/04 05:56:51;;;;;;;4.03;2.03;;;;;;;24.09;100.00;102310.75;5007503;28;20112;-46
2023/09/04 05:59:18;;;;;;;3.80;2.15;;;;;;;24.06;100.00;102306.81;5009925;28;20103;-46
2023/09/04 06:01:45;;;;;;;4.53;2.30;;;;;;;24.00;100.00;102310.78;5004171;28;20089;-49
2023/09/04 06:04:11;;;;;;;9.80;3.38;;;;;;;24.02;100.00;102306.19;5004363;28;20558;-49
2023/09/04 06:06:38;;;;;;;7.85;3.67;;;;;;;23.70;100.00;102306.00;5010801;28;20050;-49
2023/09/04 06:09:06;;;;;;;8.82;4.25;;;;;;;23.39;100.00;102311.75;5008927;28;20072;-48
2023/09/04 06:11:33;;;;;;;11.88;4.78;;;;;;;23.40;100.00;102301.19;5005092;28;20162;-48
2023/09/04 06:14:00;;;;;;;13.43;4.97;;;;;;;23.29;100.00;102304.47;5011657;28;20132;-47
2023/09/04 06:16:26;;;;;;;12.73;4.68;;;;;;;22.92;100.00;102299.88;5000522;28;20087;-47
2023/09/04 06:18:53;;;;;;;13.40;5.90;;;;;;;22.58;100.00;102304.91;5013223;28;20072;-47
2023/09/04 06:21:19;;;;;;;15.40;5.40;;;;;;;22.75;100.00;102304.19;5013258;28;20060;-47
2023/09/04 06:23:46;;;;;;;12.65;5.57;;;;;;;22.63;100.00;102302.25;5011949;28;20061;-48
2023/09/04 06:26:13;;;;;;;17.90;6.47;;;;;;;22.45;100.00;102304.97;5010479;28;20115;-49
2023/09/04 06:28:39;;;;;;;14.60;6.57;;;;;;;22.59;100.00;102295.94;4996955;28;20080;-47
2023/09/04 09:15:18;;;;;;;9.05;3.95;;;;;;;23.80;100.00;102270.69;5057047;23;20591;-52
2023/09/04 09:17:49;;;;;;;11.20;4.25;;;;;;;23.86;100.00;102275.25;4977895;28;20523;-51
2023/09/04 09:20:35;;;;;;;9.23;3.97;;;;;;;23.93;100.00;102269.25;4999399;28;20045;-46
2023/09/04 09:23:09;;;;;;;11.05;4.57;;;;;;;23.92;100.00;102262.00;4985882;28;20048;-48
2023/09/04 09:25:37;;;;;;;13.50;4.72;;;;;;;23.87;100.00;102256.94;4946370;28;20053;-51
2023/09/04 09:28:11;;;;;;;7.72;3.47;;;;;;;23.82;100.00;102248.25;4881777;29;20105;-53
2023/09/04 09:30:39;;;;;;;9.38;4.05;;;;;;;23.76;100.00;102245.28;4855392;29;20110;-49
2023/09/04 09:33:16;;;;;;;8.27;3.70;;;;;;;23.79;100.00;102246.38;4796273;29;20749;-51
2023/09/04 09:35:44;;;;;;;8.43;3.88;;;;;;;23.74;100.00;102250.66;4718558;30;20525;-54
2023/09/04 09:38:24;;;;;;;10.02;3.85;;;;;;;23.76;100.00;102247.34;4645608;30;20158;-49
2023/09/04 09:43:31;;;;;;;9.20;3.13;;;;;;;23.74;100.00;102244.97;5140706;27;20154;-54
2023/09/04 09:46:00;;;;;;;10.10;3.80;;;;;;;23.74;100.00;102250.66;5130133;27;20043;-52
2023/09/04 09:48:26;;;;;;;10.10;3.30;;;;;;;23.76;100.00;102245.28;5099192;28;20066;-54
2023/09/04 09:50:54;;;;;;;6.15;3.10;;;;;;;23.76;100.00;102247.34;5022755;28;1267625;-49
2023/09/04 09:53:22;;;;;;;8.65;2.95;;;;;;;23.77;100.00;102252.53;5044331;28;20110;-49
2023/09/04 09:55:52;;;;;;;8.75;3.80;;;;;;;23.80;100.00;102242.28;5042301;28;20467;-51
2023/09/04 09:58:20;;;;;;;7.85;3.55;;;;;;;23.83;100.00;102235.66;5044506;28;20110;-52
2023/09/04 10:00:46;;;;;;;8.80;3.67;;;;;;;23.84;100.00;102231.56;5045962;28;20107;-56
2023/09/04 10:03:28;;;;;;;8.55;4.00;;;;;;;23.71;100.00;102234.56;5045528;28;20537;-52
2023/09/04 10:06:06;;;;;;;7.50;3.30;;;;;;;23.75;100.00;102225.88;5039493;28;20156;-50
2023/09/04 10:08:37;;;;;;;8.30;3.15;;;;;;;23.78;100.00;102216.41;5042066;28;20088;-54
2023/09/04 10:11:07;;;;;;;11.50;5.32;;;;;;;23.78;100.00;102213.56;5043324;28;20049;-50
2023/09/04 10:13:38;;;;;;;7.18;3.65;;;;;;;23.78;100.00;102207.88;5037088;28;20120;-49
2023/09/04 10:16:09;;;;;;;6.32;3.40;;;;;;;23.82;100.00;102211.34;5043215;28;20053;-52
2023/09/04 10:18:40;;;;;;;9.60;3.50;;;;;;;23.78;100.00;102207.88;5039028;28;20061;-50
2023/09/04 10:21:12;;;;;;;8.10;3.40;;;;;;;23.90;100.00;102213.38;5044556;28;20084;-53
2023/09/04 10:23:55;;;;;;;6.90;3.35;;;;;;;23.91;100.00;102211.34;5026642;28;20053;-52
2023/09/04 10:26:35;;;;;;;6.63;3.50;;;;;;;23.95;100.00;102203.44;5038515;28;20573;-49
2023/09/04 10:29:05;;;;;;;9.13;3.53;;;;;;;23.97;100.00;102201.69;5039744;28;20041;-52
2023/09/04 10:31:34;;;;;;;6.15;3.45;;;;;;;24.01;100.00;102195.88;5041217;28;20115;-52
2023/09/04 10:34:02;;;;;;;6.85;3.38;;;;;;;24.02;100.00;102192.56;5043493;28;20578;-54
2023/09/04 10:36:44;;;;;;;7.57;3.33;;;;;;;24.02;100.00;102201.06;5040316;28;20131;-52
2023/09/04 10:39:11;;;;;;;4.85;3.08;;;;;;;24.00;100.00;102195.06;5040857;28;20146;-53
2023/09/04 10:41:41;;;;;;;8.73;3.30;;;;;;;23.97;100.00;102187.50;5045080;28;20099;-55
2023/09/04 10:44:11;;;;;;;8.18;3.35;;;;;;;23.96;100.00;102180.25;5042655;28;20132;-51
2023/09/04 10:47:04;;;;;;;9.52;3.42;;;;;;;23.96;100.00;102179.44;5030762;28;20053;-51
2023/09/04 10:49:45;;;;;;;7.80;3.58;;;;;;;23.99;100.00;102178.50;5039882;28;20049;-54
2023/09/04 10:52:24;;;;;;;9.93;3.42;;;;;;;23.96;100.00;102174.56;5037690;28;20052;-51
2023/09/04 10:55:11;;;;;;;6.55;3.03;;;;;;;24.10;100.00;102168.22;5019943;28;20064;-51
2023/09/04 10:57:59;;;;;;;16.30;3.45;;;;;;;24.05;100.00;102170.91;5022913;28;20155;-51
2023/09/04 11:00:30;;;;;;;7.88;3.33;;;;;;;23.97;100.00;102166.84;5020296;28;20728;-54
2023/09/04 11:02:58;;;;;;;7.00;3.10;;;;;;;23.96;100.00;102162.41;5016547;28;20080;-54
2023/09/04 11:05:25;;;;;;;8.65;3.47;;;;;;;23.99;100.00;102172.81;5023643;28;20050;-54
2023/09/04 11:07:52;;;;;;;8.55;3.17;;;;;;;24.01;100.00;102167.47;5026014;28;20050;-52
2023/09/04 11:10:33;;;;;;;8.63;3.13;;;;;;;24.01;100.00;102161.78;5022053;28;20124;-53
2023/09/04 11:13:00;;;;;;;10.32;3.10;;;;;;;24.03;100.00;102157.19;5012912;28;20044;-51
2023/09/04 11:15:28;;;;;;;6.07;2.78;;;;;;;24.01;100.00;102161.78;5024247;28;20069;-52
2023/09/04 11:17:55;;;;;;;6.30;3.17;;;;;;;24.02;100.00;102154.81;5020103;28;20062;-54
2023/09/04 11:20:26;;;;;;;9.10;3.25;;;;;;;24.00;100.00;102155.31;5025947;28;20668;-49
2023/09/04 11:22:55;;;;;;;14.80;3.28;;;;;;;24.03;100.00;102154.34;5020587;28;20145;-51
2023/09/04 11:25:22;;;;;;;9.30;3.63;;;;;;;24.18;100.00;102155.28;5017992;28;20549;-53
2023/09/04 11:27:49;;;;;;;8.13;3.47;;;;;;;24.26;100.00;102150.06;5023892;28;20049;-54
2023/09/04 11:30:15;;;;;;;9.25;3.20;;;;;;;24.29;100.00;102149.09;5018087;28;20499;-52
2023/09/04 11:32:42;;;;;;;7.95;3.63;;;;;;;24.30;100.00;102148.63;5019770;28;20125;-51
2023/09/04 11:35:13;;;;;;;6.10;3.20;;;;;;;24.30;100.00;102145.00;5013129;28;20407;-52
2023/09/04 11:37:42;;;;;;;7.57;3.47;;;;;;;24.32;100.00;102146.09;5018022;28;20124;-49
2023/09/04 11:40:09;;;;;;;6.55;2.97;;;;;;;24.30;100.00;102145.78;5022164;28;20069;-50
2023/09/04 11:42:36;;;;;;;13.68;3.95;;;;;;;24.35;100.00;102147.19;5022328;28;20500;-54
2023/09/04 11:45:04;;;;;;;13.60;3.30;;;;;;;24.33;100.00;102144.03;5022366;28;20140;-51
2023/09/04 11:47:31;;;;;;;13.77;3.63;;;;;;;24.30;100.00;102140.09;5025242;28;20054;-51
2023/09/04 11:49:58;;;;;;;11.82;3.88;;;;;;;24.22;100.00;102132.34;5014122;28;20454;-50
2023/09/04 11:52:28;;;;;;;13.75;4.25;;;;;;;24.21;100.00;102130.78;5037661;28;20114;-49
2023/09/04 11:54:56;;;;;;;14.82;4.28;;;;;;;24.14;100.00;102134.75;5033578;28;20057;-50
2023/09/04 11:57:23;;;;;;;13.68;4.18;;;;;;;24.14;100.00;102128.28;5034110;28;20533;-48
2023/09/04 11:59:50;;;;;;;14.55;3.97;;;;;;;24.20;100.00;102127.16;5048755;28;20103;-52
2023/09/04 12:02:16;;;;;;;11.90;3.75;;;;;;;24.24;100.00;102127.03;5035935;28;20049;-52
2023/09/04 12:04:45;;;;;;;6.40;2.88;;;;;;;24.25;100.00;102120.88;5038920;28;20049;-55
2023/09/04 12:07:13;;;;;;;12.63;4.32;;;;;;;24.30;100.00;102127.97;5033449;28;20439;-54
2023/09/04 12:09:40;;;;;;;9.52;3.47;;;;;;;24.32;100.00;102125.41;5036674;28;20132;-56
2023/09/04 12:12:07;;;;;;;10.70;3.42;;;;;;;24.30;100.00;102119.44;5031773;28;20049;-53
2023/09/04 12:14:33;;;;;;;9.13;3.60;;;;;;;24.32;100.00;102119.72;5045496;28;20076;-49
2023/09/04 12:17:49;;;;;;;7.15;3.05;;;;;;;24.32;100.00;102114.03;5098437;27;20356;-52
2023/09/04 12:20:16;;;;;;;8.70;3.65;;;;;;;24.35;100.00;102115.91;5103418;28;20048;-49
2023/09/04 12:22:53;;;;;;;9.85;3.80;;;;;;;24.30;100.00;102116.59;5099322;28;20071;-54
2023/09/04 12:25:22;;;;;;;9.90;3.70;;;;;;;24.40;100.00;102115.25;5092188;28;20574;-49
2023/09/04 12:27:49;;;;;;;14.15;4.07;;;;;;;24.41;100.00;102114.78;5093017;28;20052;-52
2023/09/04 12:30:22;;;;;;;10.50;3.42;;;;;;;24.42;100.00;102112.72;5097559;28;20063;-49
2023/09/04 12:32:49;;;;;;;7.78;3.20;;;;;;;24.44;100.00;102107.38;5084868;27;20125;-52
2023/09/04 12:35:18;;;;;;;11.38;3.28;;;;;;;24.43;100.00;102105.78;5089238;28;20048;-50
2023/09/04 12:37:45;;;;;;;8.43;2.88;;;;;;;24.28;100.00;102108.53;5093584;28;20533;-53
2023/09/04 12:40:13;;;;;;;10.43;3.25;;;;;;;24.18;100.00;102106.16;5084274;28;20525;-52
2023/09/04 12:42:40;;;;;;;8.63;3.17;;;;;;;24.24;100.00;102101.44;5086027;28;20062;-48
2023/09/04 12:45:07;;;;;;;7.82;3.10;;;;;;;24.22;100.00;102092.56;5096843;28;20104;-51
2023/09/04 12:47:33;;;;;;;6.38;3.30;;;;;;;24.21;100.00;102094.66;5093896;28;20036;-50
2023/09/04 12:50:00;;;;;;;6.63;3.35;;;;;;;24.18;100.00;102089.91;5053358;27;20498;-55
2023/09/04 12:52:29;;;;;;;6.07;3.05;;;;;;;24.28;100.00;102097.19;5054467;28;20069;-55
2023/09/04 12:54:56;;;;;;;11.27;3.40;;;;;;;24.38;100.00;102080.84;5047125;28;20560;-55
2023/09/04 12:57:22;;;;;;;5.07;2.80;;;;;;;24.38;100.00;102080.84;5049731;28;20041;-49
2023/09/04 12:59:49;;;;;;;12.10;3.30;;;;;;;24.36;100.00;102072.00;5046969;28;20126;-53
2023/09/04 13:02:15;;;;;;;6.82;3.25;;;;;;;24.33;100.00;102075.81;5048988;28;20053;-51
2023/09/04 13:04:42;;;;;;;12.57;3.45;;;;;;;24.37;100.00;102065.84;5055936;28;20536;-51
2023/09/04 13:07:09;;;;;;;12.68;3.30;;;;;;;24.47;100.00;102072.28;5050669;28;20072;-49
2023/09/04 13:09:36;;;;;;;6.22;3.28;;;;;;;24.46;100.00;102061.41;5048039;28;20049;-51
2023/09/04 13:12:04;;;;;;;11.32;3.40;;;;;;;24.50;100.00;102059.16;5046366;28;20461;-52
2023/09/04 13:14:31;;;;;;;9.85;3.13;;;;;;;24.52;100.00;102065.94;5056380;28;20118;-49
2023/09/04 13:16:57;;;;;;;9.00;3.63;;;;;;;24.49;100.00;102058.38;5048308;28;20485;-49
2023/09/04 13:19:25;;;;;;;17.10;3.10;;;;;;;24.50;100.00;102059.94;5057488;28;20622;-51
2023/09/04 13:21:52;;;;;;;7.25;3.47;;;;;;;24.54;100.00;102059.75;5060571;28;20150;-49
2023/09/04 13:24:18;;;;;;;7.53;3.17;;;;;;;24.48;100.00;102066.09;5056241;28;20568;-52
2023/09/04 13:26:45;;;;;;;10.00;3.10;;;;;;;24.51;100.00;102053.00;5048002;28;20499;-51
2023/09/04 13:29:11;;;;;;;8.00;3.30;;;;;;;24.50;100.00;102045.72;5030489;28;20084;-50
2023/09/04 13:31:38;;;;;;;8.23;3.60;;;;;;;24.49;100.00;102044.16;5031941;28;20085;-48
2023/09/04 13:34:05;;;;;;;10.55;3.50;;;;;;;24.40;100.00;102035.66;5033790;28;20053;-50
2023/09/04 13:36:31;;;;;;;7.63;3.42;;;;;;;24.47;100.00;102034.53;5031914;28;20057;-51
2023/09/04 13:38:58;;;;;;;9.00;3.17;;;;;;;24.42;100.00;102027.47;5033610;28;20095;-52
2023/09/04 13:41:24;;;;;;;7.78;3.45;;;;;;;24.46;100.00;102022.38;5031943;28;20107;-51
2023/09/04 13:43:51;;;;;;;5.78;3.17;;;;;;;24.41;100.00;102017.38;5036686;28;20655;-54
2023/09/04 13:46:17;;;;;;;7.07;3.08;;;;;;;24.50;100.00;102022.19;5030798;28;20046;-55
2023/09/04 13:48:44;;;;;;;7.35;3.17;;;;;;;24.48;100.00;102014.94;5031000;28;20061;-53
2023/09/04 13:51:11;;;;;;;8.38;2.92;;;;;;;24.51;100.00;102006.72;5043595;28;20049;-53
2023/09/04 13:53:37;;;;;;;5.13;2.95;;;;;;;24.52;100.00;102005.44;5037571;28;20527;-56
2023/09/04 13:56:04;;;;;;;6.85;2.95;;;;;;;24.47;100.00;102003.28;5032161;28;20103;-53
2023/09/04 13:58:30;;;;;;;7.25;3.17;;;;;;;24.52;100.00;101996.91;5046846;28;20049;-52
2023/09/04 14:00:57;;;;;;;8.13;2.90;;;;;;;24.51;100.00;101998.97;5036307;28;20072;-52
2023/09/04 14:03:23;;;;;;;6.60;2.72;;;;;;;24.49;100.00;101995.81;5033985;28;20041;-51
2023/09/04 14:05:50;;;;;;;6.28;2.63;;;;;;;24.54;100.00;101988.69;5042981;28;20055;-49
2023/09/04 14:08:17;;;;;;;7.03;2.78;;;;;;;24.50;100.00;101988.84;5030474;28;20525;-51